Time,TemperatureF,DewpointF,PressureIn,WindDirection,WindDirectionDegrees,WindSpeedMPH,WindSpeedGustMPH,Humidity,HourlyPrecipIn,Conditions,Clouds,dailyrainin,SoftwareType,DateUTC
2013-03-10 00:00:00,48.0,22.9,29.25,SSW,202,1.0,4.0,37,0.00,,,0.00,Weather View 32 v70,2013-03-10 05:00:00,
2013-03-10 00:05:00,48.0,22.3,29.26,SSW,202,0.0,4.0,36,0.00,,,0.00,Weather View 32 v70,2013-03-10 05:05:00,
2013-03-10 00:10:00,48.0,23.6,29.26,South,180,0.0,4.0,38,0.00,,,0.00,Weather View 32 v70,2013-03-10 05:10:00,
2013-03-10 00:15:00,48.0,23.6,29.25,SSW,202,0.0,4.0,38,0.00,,,0.00,Weather View 32 v70,2013-03-10 05:15:00,
2013-03-10 00:20:00,48.0,23.6,29.25,SSE,157,1.0,3.0,38,0.00,,,0.00,Weather View 32 v70,2013-03-10 05:20:00,
2013-03-10 00:25:00,48.0,22.9,29.25,South,180,0.0,3.0,37,0.00,,,0.00,Weather View 32 v70,2013-03-10 05:25:00,
2013-03-10 00:35:00,48.0,23.6,29.26,SW,225,0.0,3.0,38,0.00,,,0.00,Weather View 32 v70,2013-03-10 05:35:00,
2013-03-10 00:40:00,48.0,23.6,29.25,SW,225,0.0,3.0,38,0.00,,,0.00,Weather View 32 v70,2013-03-10 05:40:00,
2013-03-10 00:50:00,48.0,23.6,29.25,SW,225,0.0,3.0,38,0.00,,,0.00,Weather View 32 v70,2013-03-10 05:50:00,
2013-03-10 00:55:00,48.0,23.6,29.25,SW,225,0.0,5.0,38,0.00,,,0.00,Weather View 32 v70,2013-03-10 05:55:00,
2013-03-10 01:05:00,48.0,23.6,29.26,SSW,202,0.0,5.0,38,0.00,,,0.00,Weather View 32 v70,2013-03-10 06:05:00,
2013-03-10 01:10:00,48.0,23.6,29.26,SSE,157,1.0,5.0,38,0.00,,,0.00,Weather View 32 v70,2013-03-10 06:10:00,
2013-03-10 01:15:00,49.0,23.2,29.25,SSE,157,4.0,8.0,36,0.00,,,0.00,Weather View 32 v70,2013-03-10 06:15:00,
2013-03-10 01:24:00,50.0,23.4,29.25,SSE,157,1.0,8.0,35,0.00,,,0.00,Weather View 32 v70,2013-03-10 06:24:00,
2013-03-10 01:30:00,49.0,23.2,29.25,SSE,157,3.0,8.0,36,0.00,,,0.00,Weather View 32 v70,2013-03-10 06:30:00,
2013-03-10 01:40:00,49.0,23.2,29.24,South,180,0.0,8.0,36,0.00,,,0.00,Weather View 32 v70,2013-03-10 06:40:00,
2013-03-10 01:45:00,49.0,23.2,29.25,South,180,0.0,8.0,36,0.00,,,0.00,Weather View 32 v70,2013-03-10 06:45:00,
2013-03-10 01:50:00,49.0,23.2,29.25,South,180,2.0,8.0,36,0.00,,,0.00,Weather View 32 v70,2013-03-10 06:50:00,
2013-03-10 03:00:00,48.0,23.6,29.25,South,180,0.0,0.0,38,0.00,,,0.00,Weather View 32 v70,2013-03-10 07:00:00,
2013-03-10 03:05:00,47.0,22.7,29.25,South,180,0.0,0.0,38,0.00,,,0.00,Weather View 32 v70,2013-03-10 07:05:00,
2013-03-10 03:15:00,47.0,23.3,29.26,SSE,157,0.0,0.0,39,0.00,,,0.00,Weather View 32 v70,2013-03-10 07:15:00,
2013-03-10 03:20:00,47.0,23.3,29.25,South,180,0.0,0.0,39,0.00,,,0.00,Weather View 32 v70,2013-03-10 07:20:00,
2013-03-10 03:30:00,47.0,23.3,29.25,South,180,0.0,0.0,39,0.00,,,0.00,Weather View 32 v70,2013-03-10 07:30:00,
2013-03-10 03:35:00,47.0,23.3,29.25,South,180,0.0,0.0,39,0.00,,,0.00,Weather View 32 v70,2013-03-10 07:35:00,
2013-03-10 03:40:00,47.0,22.7,29.25,SSE,157,0.0,4.0,38,0.00,,,0.00,Weather View 32 v70,2013-03-10 07:40:00,
2013-03-10 03:50:00,48.0,22.3,29.24,SE,135,1.0,4.0,36,0.00,,,0.00,Weather View 32 v70,2013-03-10 07:50:00,
2013-03-10 03:55:00,48.0,23.6,29.23,SE,135,0.0,4.0,38,0.00,,,0.00,Weather View 32 v70,2013-03-10 07:55:00,
2013-03-10 04:00:00,47.0,23.3,29.24,SE,135,2.0,4.0,39,0.00,,,0.00,Weather View 32 v70,2013-03-10 08:00:00,
2013-03-10 04:10:00,48.0,24.2,29.23,SE,135,2.0,5.0,39,0.00,,,0.00,Weather View 32 v70,2013-03-10 08:10:00,
2013-03-10 04:15:00,46.0,23.6,29.23,SE,135,5.0,6.0,41,0.00,,,0.00,Weather View 32 v70,2013-03-10 08:15:00,
2013-03-10 04:25:00,43.0,27.5,29.25,ESE,112,7.0,10.0,54,0.00,,,0.00,Weather View 32 v70,2013-03-10 08:25:00,
2013-03-10 04:30:00,43.0,27.0,29.25,ESE,112,6.0,10.0,53,0.00,,,0.00,Weather View 32 v70,2013-03-10 08:30:00,
2013-03-10 04:35:00,43.0,27.9,29.25,ESE,112,2.0,10.0,55,0.00,,,0.00,Weather View 32 v70,2013-03-10 08:35:00,
2013-03-10 04:40:00,42.0,27.4,29.25,East,90,8.0,10.0,56,0.00,,,0.00,Weather View 32 v70,2013-03-10 08:40:00,
2013-03-10 04:45:00,43.0,27.5,29.25,ESE,112,0.0,10.0,54,0.00,,,0.00,Weather View 32 v70,2013-03-10 08:45:00,
2013-03-10 04:55:00,43.0,27.5,29.25,ESE,112,5.0,10.0,54,0.00,,,0.00,Weather View 32 v70,2013-03-10 08:55:00,
2013-03-10 05:00:00,43.0,27.0,29.25,ESE,112,0.0,10.0,53,0.00,,,0.00,Weather View 32 v70,2013-03-10 09:00:00,
2013-03-10 05:10:00,43.0,25.6,29.26,ESE,112,0.0,10.0,50,0.00,,,0.00,Weather View 32 v70,2013-03-10 09:10:00,
2013-03-10 05:15:00,43.0,25.6,29.26,ESE,112,0.0,10.0,50,0.00,,,0.00,Weather View 32 v70,2013-03-10 09:15:00,
2013-03-10 05:20:00,44.0,26.5,29.25,ESE,112,0.0,10.0,50,0.00,,,0.00,Weather View 32 v70,2013-03-10 09:20:00,
2013-03-10 05:30:00,43.0,25.6,29.25,ESE,112,0.0,8.0,50,0.00,,,0.00,Weather View 32 v70,2013-03-10 09:30:00,
2013-03-10 05:35:00,43.0,25.6,29.26,ESE,112,0.0,8.0,50,0.00,,,0.00,Weather View 32 v70,2013-03-10 09:35:00,
2013-03-10 05:45:00,45.0,25.4,29.25,ESE,112,0.0,6.0,46,0.00,,,0.00,Weather View 32 v70,2013-03-10 09:45:00,
2013-03-10 05:50:00,44.0,24.5,29.25,ESE,112,0.0,6.0,46,0.00,,,0.00,Weather View 32 v70,2013-03-10 09:50:00,
2013-03-10 06:00:00,44.0,24.5,29.25,ESE,112,0.0,3.0,46,0.00,,,0.00,Weather View 32 v70,2013-03-10 10:00:00,
2013-03-10 06:05:00,44.0,24.5,29.25,ESE,112,0.0,3.0,46,0.00,,,0.00,Weather View 32 v70,2013-03-10 10:05:00,
2013-03-10 06:15:00,46.0,24.2,29.25,SE,135,5.0,7.0,42,0.00,,,0.00,Weather View 32 v70,2013-03-10 10:15:00,
2013-03-10 06:20:00,46.0,24.2,29.25,SE,135,1.0,7.0,42,0.00,,,0.00,Weather View 32 v70,2013-03-10 10:20:00,
2013-03-10 06:30:00,46.0,24.2,29.25,SE,135,6.0,7.0,42,0.00,,,0.00,Weather View 32 v70,2013-03-10 10:30:00,
2013-03-10 06:35:00,46.0,23.6,29.25,SE,135,6.0,8.0,41,0.00,,,0.00,Weather View 32 v70,2013-03-10 10:35:00,
2013-03-10 06:40:00,46.0,23.6,29.25,SE,135,3.0,8.0,41,0.00,,,0.00,Weather View 32 v70,2013-03-10 10:40:00,
2013-03-10 06:50:00,46.0,24.7,29.25,SE,135,1.0,8.0,43,0.00,,,0.00,Weather View 32 v70,2013-03-10 10:50:00,
2013-03-10 06:55:00,45.0,24.9,29.26,ESE,112,6.0,8.0,45,0.00,,,0.00,Weather View 32 v70,2013-03-10 10:55:00,
2013-03-10 07:02:00,45.0,25.4,29.26,ESE,112,7.0,8.0,46,0.00,,,0.00,Weather View 32 v70,2013-03-10 11:02:00,
2013-03-10 07:10:00,44.0,25.5,29.26,ESE,112,5.0,8.0,48,0.00,,,0.00,Weather View 32 v70,2013-03-10 11:10:00,
2013-03-10 07:20:00,43.0,25.6,29.26,ESE,112,3.0,8.0,50,0.00,,,0.00,Weather View 32 v70,2013-03-10 11:20:00,
2013-03-10 07:25:00,43.0,25.6,29.27,ESE,112,3.0,8.0,50,0.00,,,0.00,Weather View 32 v70,2013-03-10 11:25:00,
2013-03-10 07:35:00,43.0,25.1,29.26,ESE,112,4.0,8.0,49,0.00,,,0.00,Weather View 32 v70,2013-03-10 11:35:00,
2013-03-10 07:40:00,43.0,24.6,29.26,ESE,112,4.0,7.0,48,0.00,,,0.00,Weather View 32 v70,2013-03-10 11:40:00,
2013-03-10 07:45:00,44.0,25.5,29.26,ESE,112,2.0,7.0,48,0.00,,,0.00,Weather View 32 v70,2013-03-10 11:45:00,
2013-03-10 07:55:00,44.0,26.5,29.26,ESE,112,0.0,7.0,50,0.00,,,0.00,Weather View 32 v70,2013-03-10 11:55:00,
2013-03-10 08:03:00,44.0,26.5,29.27,ESE,112,0.0,7.0,50,0.00,,,0.00,Weather View 32 v70,2013-03-10 12:03:00,
2013-03-10 08:10:00,43.0,26.1,29.27,SSE,157,1.0,6.0,51,0.00,,,0.00,Weather View 32 v70,2013-03-10 12:10:00,
2013-03-10 08:15:00,43.0,25.6,29.27,ESE,112,3.0,6.0,50,0.00,,,0.00,Weather View 32 v70,2013-03-10 12:15:00,
2013-03-10 08:25:00,44.0,26.5,29.27,ESE,112,3.0,6.0,50,0.00,,,0.00,Weather View 32 v70,2013-03-10 12:25:00,
2013-03-10 08:30:00,44.0,27.5,29.27,ESE,112,1.0,6.0,52,0.00,,,0.00,Weather View 32 v70,2013-03-10 12:30:00,
2013-03-10 08:40:00,43.0,27.0,29.29,SSW,202,0.0,6.0,53,0.00,,,0.00,Weather View 32 v70,2013-03-10 12:40:00,
2013-03-10 08:45:00,43.0,26.6,29.29,SE,135,1.0,6.0,52,0.00,,,0.00,Weather View 32 v70,2013-03-10 12:45:00,
2013-03-10 08:55:00,43.0,27.0,29.29,SE,135,0.0,6.0,53,0.00,,,0.00,Weather View 32 v70,2013-03-10 12:55:00,
2013-03-10 09:00:00,44.0,27.5,29.29,SE,135,0.0,6.0,52,0.00,,,0.00,Weather View 32 v70,2013-03-10 13:00:00,
2013-03-10 09:10:00,44.0,28.8,29.29,SE,135,0.0,6.0,55,0.00,,,0.00,Weather View 32 v70,2013-03-10 13:10:00,
2013-03-10 09:15:00,45.0,29.8,29.28,SE,135,0.0,6.0,55,0.00,,,0.00,Weather View 32 v70,2013-03-10 13:15:00,
2013-03-10 09:20:00,45.0,29.8,29.28,SE,135,1.0,5.0,55,0.00,,,0.00,Weather View 32 v70,2013-03-10 13:20:00,
2013-03-10 09:25:00,44.0,32.2,29.28,SE,135,0.0,5.0,63,0.00,,,0.00,Weather View 32 v70,2013-03-10 13:25:00,
2013-03-10 09:30:00,43.0,32.0,29.29,SE,135,1.0,5.0,65,0.00,,,0.00,Weather View 32 v70,2013-03-10 13:30:00,
2013-03-10 09:35:00,43.0,32.4,29.29,SE,135,0.0,5.0,66,0.00,,,0.00,Weather View 32 v70,2013-03-10 13:35:00,
2013-03-10 09:45:00,43.0,30.0,29.29,SE,135,1.0,7.0,60,0.00,,,0.00,Weather View 32 v70,2013-03-10 13:45:00,
2013-03-10 09:50:00,43.0,27.5,29.30,SE,135,6.0,7.0,54,0.00,,,0.00,Weather View 32 v70,2013-03-10 13:50:00,
2013-03-10 10:00:00,44.0,28.4,29.29,SSE,157,3.0,10.0,54,0.00,,,0.00,Weather View 32 v70,2013-03-10 14:00:00,
2013-03-10 10:10:00,45.0,30.2,29.28,SE,135,0.0,10.0,56,0.00,,,0.00,Weather View 32 v70,2013-03-10 14:10:00,
2013-03-10 10:15:00,46.0,29.8,29.28,SE,135,0.0,10.0,53,0.00,,,0.00,Weather View 32 v70,2013-03-10 14:15:00,
2013-03-10 10:20:00,47.0,28.8,29.27,SE,135,3.0,10.0,49,0.00,,,0.00,Weather View 32 v70,2013-03-10 14:20:00,
2013-03-10 10:30:00,47.0,31.2,29.28,SSE,157,0.0,10.0,54,0.00,,,0.00,Weather View 32 v70,2013-03-10 14:30:00,
2013-03-10 10:35:00,47.0,31.2,29.27,SE,135,0.0,10.0,54,0.00,,,0.00,Weather View 32 v70,2013-03-10 14:35:00,
2013-03-10 10:45:00,48.0,32.1,29.27,ESE,112,4.0,10.0,54,0.00,,,0.00,Weather View 32 v70,2013-03-10 14:45:00,
2013-03-10 10:50:00,49.0,32.6,29.27,SSE,157,0.0,10.0,53,0.00,,,0.00,Weather View 32 v70,2013-03-10 14:50:00,
2013-03-10 11:00:00,48.0,32.1,29.27,ESE,112,9.0,11.0,54,0.00,,,0.00,Weather View 32 v70,2013-03-10 15:00:00,
2013-03-10 11:05:00,48.0,32.6,29.27,ENE,67,0.0,15.0,55,0.00,,,0.00,Weather View 32 v70,2013-03-10 15:05:00,
2013-03-10 11:15:00,50.0,32.6,29.25,SE,135,0.0,15.0,51,0.00,,,0.00,Weather View 32 v70,2013-03-10 15:15:00,
2013-03-10 11:20:00,50.0,32.6,29.25,East,90,7.0,15.0,51,0.00,,,0.00,Weather View 32 v70,2013-03-10 15:20:00,
2013-03-10 11:30:00,50.0,31.6,29.26,East,90,3.0,15.0,49,0.00,,,0.00,Weather View 32 v70,2013-03-10 15:30:00,
2013-03-10 11:35:00,49.0,32.1,29.27,SE,135,6.0,15.0,52,0.00,,,0.00,Weather View 32 v70,2013-03-10 15:35:00,
2013-03-10 11:45:00,51.0,32.0,29.26,SSE,157,6.0,15.0,48,0.00,,,0.00,Weather View 32 v70,2013-03-10 15:45:00,
2013-03-10 11:50:00,52.0,32.4,29.25,ESE,112,0.0,15.0,47,0.00,,,0.00,Weather View 32 v70,2013-03-10 15:50:00,
2013-03-10 12:00:00,52.0,31.3,29.25,East,90,9.0,15.0,45,0.00,,,0.00,Weather View 32 v70,2013-03-10 16:00:00,
2013-03-10 12:05:00,52.0,32.9,29.25,SSW,202,1.0,16.0,48,0.00,,,0.00,Weather View 32 v70,2013-03-10 16:05:00,
2013-03-10 12:10:00,52.0,31.3,29.25,South,180,3.0,16.0,45,0.00,,,0.00,Weather View 32 v70,2013-03-10 16:10:00,
2013-03-10 12:15:00,52.0,32.4,29.25,ESE,112,7.0,16.0,47,0.00,,,0.00,Weather View 32 v70,2013-03-10 16:15:00,
2013-03-10 12:25:00,54.0,33.1,29.23,SE,135,10.0,16.0,45,0.00,,,0.00,Weather View 32 v70,2013-03-10 16:25:00,
2013-03-10 12:30:00,53.0,32.2,29.23,NNE,22,0.0,17.0,45,0.00,,,0.00,Weather View 32 v70,2013-03-10 16:30:00,
2013-03-10 12:35:00,54.0,29.6,29.23,South,180,0.0,20.0,39,0.00,,,0.00,Weather View 32 v70,2013-03-10 16:35:00,
2013-03-10 12:45:00,54.0,29.6,29.23,East,90,5.0,20.0,39,0.00,,,0.00,Weather View 32 v70,2013-03-10 16:45:00,
2013-03-10 12:50:00,53.0,28.7,29.23,SSE,157,6.0,22.0,39,0.00,,,0.00,Weather View 32 v70,2013-03-10 16:50:00,
2013-03-10 13:00:00,54.0,28.9,29.22,SE,135,11.0,22.0,38,0.00,,,0.00,Weather View 32 v70,2013-03-10 17:00:00,
2013-03-10 13:05:00,54.0,29.6,29.22,SSE,157,0.0,22.0,39,0.00,,,0.00,Weather View 32 v70,2013-03-10 17:05:00,
2013-03-10 13:15:00,56.0,28.0,29.21,SSE,157,8.0,22.0,34,0.00,,,0.00,Weather View 32 v70,2013-03-10 17:15:00,
2013-03-10 13:20:00,56.0,28.7,29.20,ESE,112,3.0,22.0,35,0.00,,,0.00,Weather View 32 v70,2013-03-10 17:20:00,
2013-03-10 13:30:00,55.0,26.4,29.20,South,180,9.0,24.0,33,0.00,,,0.00,Weather View 32 v70,2013-03-10 17:30:00,
2013-03-10 13:35:00,56.0,27.2,29.20,SSE,157,0.0,24.0,33,0.00,,,0.00,Weather View 32 v70,2013-03-10 17:35:00,
2013-03-10 13:45:00,56.0,27.2,29.19,SE,135,15.0,24.0,33,0.00,,,0.00,Weather View 32 v70,2013-03-10 17:45:00,
2013-03-10 13:50:00,56.0,28.0,29.19,SE,135,4.0,24.0,34,0.00,,,0.00,Weather View 32 v70,2013-03-10 17:50:00,
2013-03-10 14:00:00,56.0,26.5,29.19,SE,135,0.0,24.0,32,0.00,,,0.00,Weather View 32 v70,2013-03-10 18:00:00,
2013-03-10 14:05:00,57.0,25.0,29.18,South,180,0.0,24.0,29,0.00,,,0.00,Weather View 32 v70,2013-03-10 18:05:00,
2013-03-10 14:15:00,58.0,25.9,29.17,SSE,157,3.0,24.0,29,0.00,,,0.00,Weather View 32 v70,2013-03-10 18:15:00,
2013-03-10 14:25:00,57.0,22.4,29.17,SSE,157,10.0,24.0,26,0.00,,,0.00,Weather View 32 v70,2013-03-10 18:25:00,
2013-03-10 14:30:00,58.0,23.2,29.16,SE,135,7.0,22.0,26,0.00,,,0.00,Weather View 32 v70,2013-03-10 18:30:00,
2013-03-10 14:35:00,58.0,23.2,29.16,SE,135,6.0,22.0,26,0.00,,,0.00,Weather View 32 v70,2013-03-10 18:35:00,
2013-03-10 14:45:00,58.0,24.1,29.15,SE,135,0.0,28.0,27,0.00,,,0.00,Weather View 32 v70,2013-03-10 18:45:00,
2013-03-10 14:50:00,58.0,24.1,29.15,East,90,6.0,28.0,27,0.00,,,0.00,Weather View 32 v70,2013-03-10 18:50:00,
2013-03-10 15:00:00,59.0,25.9,29.15,SSE,157,7.0,28.0,28,0.00,,,0.00,Weather View 32 v70,2013-03-10 19:00:00,
2013-03-10 15:05:00,59.0,26.7,29.15,SSW,202,0.0,28.0,29,0.00,,,0.00,Weather View 32 v70,2013-03-10 19:05:00,
2013-03-10 15:15:00,59.0,25.9,29.15,ESE,112,13.0,28.0,28,0.00,,,0.00,Weather View 32 v70,2013-03-10 19:15:00,
2013-03-10 15:20:00,58.0,24.1,29.15,SE,135,13.0,28.0,27,0.00,,,0.00,Weather View 32 v70,2013-03-10 19:20:00,
2013-03-10 15:30:00,58.0,25.0,29.14,SE,135,8.0,28.0,28,0.00,,,0.00,Weather View 32 v70,2013-03-10 19:30:00,
2013-03-10 15:35:00,58.0,25.0,29.15,SE,135,7.0,28.0,28,0.00,,,0.00,Weather View 32 v70,2013-03-10 19:35:00,
2013-03-10 15:45:00,59.0,25.9,29.14,South,180,5.0,22.0,28,0.00,,,0.00,Weather View 32 v70,2013-03-10 19:45:00,
2013-03-10 15:50:00,59.0,25.0,29.14,SSW,202,3.0,22.0,27,0.00,,,0.00,Weather View 32 v70,2013-03-10 19:50:00,
2013-03-10 16:00:00,59.0,26.7,29.14,WSW,247,0.0,22.0,29,0.00,,,0.00,Weather View 32 v70,2013-03-10 20:00:00,
2013-03-10 16:05:00,58.0,25.0,29.13,SE,135,11.0,24.0,28,0.00,,,0.00,Weather View 32 v70,2013-03-10 20:05:00,
2013-03-10 16:10:00,58.0,25.0,29.14,SE,135,7.0,24.0,28,0.00,,,0.00,Weather View 32 v70,2013-03-10 20:10:00,
2013-03-10 16:20:00,58.0,25.9,29.14,SE,135,8.0,24.0,29,0.00,,,0.00,Weather View 32 v70,2013-03-10 20:20:00,
2013-03-10 16:30:00,59.0,24.1,29.13,South,180,6.0,24.0,26,0.00,,,0.00,Weather View 32 v70,2013-03-10 20:30:00,
2013-03-10 16:35:00,58.0,23.2,29.13,SE,135,10.0,24.0,26,0.00,,,0.00,Weather View 32 v70,2013-03-10 20:35:00,
2013-03-10 16:40:00,58.0,23.2,29.13,SE,135,7.0,24.0,26,0.00,,,0.00,Weather View 32 v70,2013-03-10 20:40:00,
2013-03-10 16:50:00,58.0,23.2,29.14,SSE,157,9.0,24.0,26,0.00,,,0.00,Weather View 32 v70,2013-03-10 20:50:00,
2013-03-10 16:55:00,58.0,25.0,29.14,SE,135,16.0,24.0,28,0.00,,,0.00,Weather View 32 v70,2013-03-10 20:55:00,
2013-03-10 17:05:00,58.0,24.1,29.13,SSW,202,2.0,23.0,27,0.00,,,0.00,Weather View 32 v70,2013-03-10 21:05:00,
2013-03-10 17:15:00,58.0,24.1,29.13,ESE,112,8.0,23.0,27,0.00,,,0.00,Weather View 32 v70,2013-03-10 21:15:00,
2013-03-10 17:20:00,57.0,23.3,29.13,SE,135,20.0,23.0,27,0.00,,,0.00,Weather View 32 v70,2013-03-10 21:20:00,
2013-03-10 17:25:00,58.0,25.9,29.13,SE,135,7.0,23.0,29,0.00,,,0.00,Weather View 32 v70,2013-03-10 21:25:00,
2013-03-10 17:35:00,58.0,25.9,29.13,SSE,157,4.0,23.0,29,0.00,,,0.00,Weather View 32 v70,2013-03-10 21:35:00,
2013-03-10 17:40:00,58.0,25.0,29.12,South,180,5.0,23.0,28,0.00,,,0.00,Weather View 32 v70,2013-03-10 21:40:00,
2013-03-10 17:50:00,58.0,25.0,29.12,ESE,112,5.0,23.0,28,0.00,,,0.00,Weather View 32 v70,2013-03-10 21:50:00,
2013-03-10 17:55:00,58.0,25.0,29.13,ESE,112,6.0,23.0,28,0.00,,,0.00,Weather View 32 v70,2013-03-10 21:55:00,
2013-03-10 18:05:00,57.0,23.3,29.13,SSE,157,0.0,23.0,27,0.00,,,0.00,Weather View 32 v70,2013-03-10 22:05:00,
2013-03-10 18:10:00,57.0,24.2,29.13,ESE,112,0.0,23.0,28,0.00,,,0.00,Weather View 32 v70,2013-03-10 22:10:00,
2013-03-10 18:20:00,57.0,24.2,29.14,ESE,112,7.0,23.0,28,0.00,,,0.00,Weather View 32 v70,2013-03-10 22:20:00,
2013-03-10 18:30:00,56.0,24.1,29.14,SE,135,6.0,22.0,29,0.00,,,0.00,Weather View 32 v70,2013-03-10 22:30:00,
2013-03-10 18:35:00,56.0,24.1,29.15,SE,135,9.0,22.0,29,0.00,,,0.00,Weather View 32 v70,2013-03-10 22:35:00,
2013-03-10 18:45:00,56.0,24.1,29.14,SE,135,4.0,22.0,29,0.00,,,0.00,Weather View 32 v70,2013-03-10 22:45:00,
2013-03-10 18:50:00,55.0,23.3,29.15,SE,135,2.0,22.0,29,0.00,,,0.00,Weather View 32 v70,2013-03-10 22:50:00,
2013-03-10 19:00:00,55.0,23.3,29.15,East,90,9.0,22.0,29,0.00,,,0.00,Weather View 32 v70,2013-03-10 23:00:00,
2013-03-10 19:05:00,55.0,23.3,29.15,SE,135,0.0,22.0,29,0.00,,,0.00,Weather View 32 v70,2013-03-10 23:05:00,
2013-03-10 19:15:00,55.0,24.1,29.14,ESE,112,2.0,22.0,30,0.00,,,0.00,Weather View 32 v70,2013-03-10 23:15:00,
2013-03-10 19:20:00,54.0,23.2,29.14,East,90,6.0,17.0,30,0.00,,,0.00,Weather View 32 v70,2013-03-10 23:20:00,
2013-03-10 19:30:00,53.0,25.3,29.15,SE,135,2.0,17.0,34,0.00,,,0.00,Weather View 32 v70,2013-03-10 23:30:00,
2013-03-10 19:35:00,53.0,26.0,29.16,ESE,112,8.0,17.0,35,0.00,,,0.00,Weather View 32 v70,2013-03-10 23:35:00,
2013-03-10 19:45:00,52.0,27.1,29.17,East,90,2.0,16.0,38,0.00,,,0.00,Weather View 32 v70,2013-03-10 23:45:00,
2013-03-10 19:50:00,51.0,26.2,29.17,SE,135,0.0,16.0,38,0.00,,,0.00,Weather View 32 v70,2013-03-10 23:50:00,
2013-03-10 20:00:00,51.0,26.2,29.18,East,90,1.0,16.0,38,0.00,,,0.00,Weather View 32 v70,2013-03-11 00:00:00,
2013-03-10 20:05:00,51.0,26.2,29.18,ESE,112,4.0,16.0,38,0.00,,,0.00,Weather View 32 v70,2013-03-11 00:05:00,
2013-03-10 20:10:00,51.0,26.9,29.18,SE,135,6.0,16.0,39,0.00,,,0.00,Weather View 32 v70,2013-03-11 00:10:00,
2013-03-10 20:20:00,51.0,25.6,29.18,SE,135,10.0,17.0,37,0.00,,,0.00,Weather View 32 v70,2013-03-11 00:20:00,
2013-03-10 20:25:00,51.0,26.2,29.18,SE,135,8.0,17.0,38,0.00,,,0.00,Weather View 32 v70,2013-03-11 00:25:00,
2013-03-10 20:30:00,51.0,26.9,29.18,SE,135,10.0,17.0,39,0.00,,,0.00,Weather View 32 v70,2013-03-11 00:30:00,
2013-03-10 20:40:00,50.0,26.6,29.18,SSE,157,3.0,17.0,40,0.00,,,0.00,Weather View 32 v70,2013-03-11 00:40:00,
2013-03-10 20:50:00,50.0,26.0,29.18,SE,135,5.0,17.0,39,0.00,,,0.00,Weather View 32 v70,2013-03-11 00:50:00,
2013-03-10 20:55:00,50.0,25.3,29.17,East,90,7.0,17.0,38,0.00,,,0.00,Weather View 32 v70,2013-03-11 00:55:00,
2013-03-10 21:05:00,49.0,23.8,29.18,SE,135,7.0,17.0,37,0.00,,,0.00,Weather View 32 v70,2013-03-11 01:05:00,
2013-03-10 21:10:00,49.0,24.5,29.18,NNE,22,3.0,20.0,38,0.00,,,0.00,Weather View 32 v70,2013-03-11 01:10:00,
2013-03-10 21:20:00,49.0,23.2,29.19,SE,135,6.0,20.0,36,0.00,,,0.00,Weather View 32 v70,2013-03-11 01:20:00,
2013-03-10 21:25:00,49.0,23.2,29.19,SE,135,4.0,20.0,36,0.00,,,0.00,Weather View 32 v70,2013-03-11 01:25:00,
2013-03-10 21:30:00,49.0,21.8,29.19,ESE,112,9.0,20.0,34,0.00,,,0.00,Weather View 32 v70,2013-03-11 01:30:00,
2013-03-10 21:40:00,49.0,22.5,29.19,SSE,157,12.0,20.0,35,0.00,,,0.00,Weather View 32 v70,2013-03-11 01:40:00,
2013-03-10 21:50:00,49.0,21.8,29.19,SSE,157,9.0,20.0,34,0.00,,,0.00,Weather View 32 v70,2013-03-11 01:50:00,
2013-03-10 21:55:00,49.0,21.8,29.19,SE,135,5.0,20.0,34,0.00,,,0.00,Weather View 32 v70,2013-03-11 01:55:00,
2013-03-10 22:05:00,49.0,21.1,29.19,ESE,112,7.0,20.0,33,0.00,,,0.00,Weather View 32 v70,2013-03-11 02:05:00,
2013-03-10 22:11:00,49.0,21.8,29.19,SE,135,9.0,20.0,34,0.00,,,0.00,Weather View 32 v70,2013-03-11 02:11:00,
2013-03-10 22:20:00,49.0,21.1,29.19,ESE,112,16.0,20.0,33,0.00,,,0.00,Weather View 32 v70,2013-03-11 02:20:00,
2013-03-10 22:30:00,49.0,21.1,29.19,SE,135,12.0,20.0,33,0.00,,,0.00,Weather View 32 v70,2013-03-11 02:30:00,
2013-03-10 22:40:00,49.0,21.1,29.19,SE,135,10.0,20.0,33,0.00,,,0.00,Weather View 32 v70,2013-03-11 02:40:00,
2013-03-10 22:50:00,49.0,20.4,29.19,East,90,9.0,23.0,32,0.00,,,0.00,Weather View 32 v70,2013-03-11 02:50:00,
2013-03-10 22:55:00,49.0,20.4,29.19,SE,135,4.0,23.0,32,0.00,,,0.00,Weather View 32 v70,2013-03-11 02:55:00,
2013-03-10 23:00:00,49.0,21.1,29.19,East,90,6.0,25.0,33,0.00,,,0.00,Weather View 32 v70,2013-03-11 03:00:00,
2013-03-10 23:10:00,49.0,19.6,29.18,ESE,112,9.0,25.0,31,0.00,,,0.00,Weather View 32 v70,2013-03-11 03:10:00,
2013-03-10 23:15:00,49.0,19.6,29.18,SE,135,9.0,25.0,31,0.00,,,0.00,Weather View 32 v70,2013-03-11 03:15:00,
2013-03-10 23:20:00,48.0,19.5,29.18,ESE,112,15.0,25.0,32,0.00,,,0.00,Weather View 32 v70,2013-03-11 03:20:00,
2013-03-10 23:30:00,48.0,20.2,29.19,SE,135,9.0,25.0,33,0.00,,,0.00,Weather View 32 v70,2013-03-11 03:30:00,
2013-03-10 23:35:00,48.0,20.9,29.19,SE,135,8.0,25.0,34,0.00,,,0.00,Weather View 32 v70,2013-03-11 03:35:00,
2013-03-10 23:45:00,47.0,20.0,29.19,SE,135,2.0,25.0,34,0.00,,,0.00,Weather View 32 v70,2013-03-11 03:45:00,
2013-03-10 23:50:00,47.0,19.3,29.19,ESE,112,7.0,25.0,33,0.00,,,0.00,Weather View 32 v70,2013-03-11 03:50:00,